Wetterdaten: aktuell Samstag, 27.05.2017 13:35
Datum Zeit Luft-Temp. Wasser Feuchte A. Luftdruck Regen Wind Richtung Richtung Windben
27.05.2017 13:35 24.3 C 21.1 C 57 % 1017.5 hPa 0.0 l/m 0.0 km/h (0 Bft) N-NW 328 0.0 km/h (0 Bft)
27.05.2017 12:35 22.4 C 21.1 C 68 % 1018.0 hPa 0.0 l/m 5.9 km/h (2 Bft) N-NW 328 7.2 km/h (2 Bft)
27.05.2017 11:35 21.1 C 21.1 C 73 % 1018.2 hPa 0.0 l/m 4.3 km/h (1 Bft) N-NW 328 7.2 km/h (2 Bft)
27.05.2017 10:35 20.1 C 20.6 C 70 % 1018.5 hPa 0.0 l/m 1.0 km/h (0 Bft) N-NW 328 5.8 km/h (2 Bft)
27.05.2017 09:35 17.7 C 20.0 C 78 % 1018.6 hPa 0.0 l/m 0.8 km/h (0 Bft) N-NW 330 5.8 km/h (2 Bft)
27.05.2017 08:35 15.4 C 20.0 C 88 % 1018.8 hPa 0.0 l/m 0.0 km/h (0 Bft) N-NW 330 0.0 km/h (0 Bft)
27.05.2017 07:35 13.6 C 20.0 C 94 % 1018.6 hPa 0.0 l/m 0.0 km/h (0 Bft) N-NW 330 0.0 km/h (0 Bft)
27.05.2017 06:35 11.8 C 20.0 C 95 % 1018.0 hPa 0.0 l/m 0.0 km/h (0 Bft) N-NW 330 0.0 km/h (0 Bft)
27.05.2017 05:35 11.6 C 20.0 C 94 % 1017.3 hPa 0.0 l/m 0.0 km/h (0 Bft) N-NW 330 0.0 km/h (0 Bft)
27.05.2017 05:21 12.2 C 20.0 C 94 % 1019.2 hPa 0.0 l/m 0.0 km/h (0 Bft) S 180 0.0 km/h (0 Bft)
27.05.2017 05:09 12.3 C 20.0 C 93 % 1019.0 hPa 0.0 l/m 0.0 km/h (0 Bft) S 180 0.0 km/h (0 Bft)
27.05.2017 04:57 12.6 C 20.0 C 93 % 1018.9 hPa 0.0 l/m 0.0 km/h (0 Bft) S 180 0.0 km/h (0 Bft)
27.05.2017 04:45 12.4 C 20.0 C 92 % 1018.9 hPa 0.0 l/m 0.0 km/h (0 Bft) S 180 0.0 km/h (0 Bft)
27.05.2017 04:33 13.1 C 20.0 C 91 % 1018.8 hPa 0.0 l/m 1.4 km/h (1 Bft) N-NW 337 3.2 km/h (1 Bft)
27.05.2017 04:21 13.1 C 20.0 C 91 % 1018.8 hPa 0.0 l/m 0.0 km/h (0 Bft) S 180 0.0 km/h (0 Bft)
27.05.2017 04:09 12.9 C 20.6 C 91 % 1018.8 hPa 0.0 l/m 0.0 km/h (0 Bft) S 180 0.0 km/h (0 Bft)
27.05.2017 03:57 13.2 C 20.6 C 92 % 1018.6 hPa 0.0 l/m 0.0 km/h (0 Bft) S 180 0.0 km/h (0 Bft)
27.05.2017 03:45 13.2 C 20.6 C 90 % 1018.6 hPa 0.0 l/m 0.0 km/h (0 Bft) S 180 0.0 km/h (0 Bft)
27.05.2017 03:33 14.1 C 20.6 C 91 % 1018.5 hPa 0.0 l/m 0.0 km/h (0 Bft) S 180 0.0 km/h (0 Bft)
27.05.2017 03:21 14.2 C 20.6 C 89 % 1018.5 hPa 0.0 l/m 0.0 km/h (0 Bft) S 180 0.0 km/h (0 Bft)
27.05.2017 03:09 13.6 C 20.6 C 86 % 1018.5 hPa 0.0 l/m 0.0 km/h (0 Bft) S 180 0.0 km/h (0 Bft)
27.05.2017 02:57 13.4 C 20.6 C 87 % 1018.5 hPa 0.0 l/m 0.0 km/h (0 Bft) S 180 0.0 km/h (0 Bft)
27.05.2017 02:45 14.1 C 20.6 C 87 % 1018.5 hPa 0.0 l/m 0.0 km/h (0 Bft) S 180 0.0 km/h (0 Bft)
27.05.2017 02:33 14.3 C 20.6 C 85 % 1018.4 hPa 0.0 l/m 0.0 km/h (0 Bft) S 180 0.0 km/h (0 Bft)
27.05.2017 02:21 13.9 C 20.6 C 85 % 1018.4 hPa 0.0 l/m 0.0 km/h (0 Bft) S 180 0.0 km/h (0 Bft)
27.05.2017 02:09 15.0 C 20.6 C 85 % 1018.3 hPa 0.0 l/m 0.0 km/h (0 Bft) S 180 0.0 km/h (0 Bft)
27.05.2017 01:57 16.3 C 20.6 C 83 % 1018.4 hPa 0.0 l/m 0.0 km/h (0 Bft) S 180 0.0 km/h (0 Bft)
27.05.2017 01:45 17.2 C 20.6 C 78 % 1018.5 hPa 0.0 l/m 0.0 km/h (0 Bft) S 180 0.0 km/h (0 Bft)
27.05.2017 01:33 17.4 C 20.6 C 79 % 1018.5 hPa 0.0 l/m 0.0 km/h (0 Bft) S 180 0.0 km/h (0 Bft)
27.05.2017 01:21 17.4 C 20.6 C 72 % 1018.4 hPa 0.0 l/m 0.0 km/h (0 Bft) S 180 0.0 km/h (0 Bft)
27.05.2017 01:09 17.4 C 20.6 C 75 % 1018.4 hPa 0.0 l/m 0.0 km/h (0 Bft) S 180 0.0 km/h (0 Bft)
27.05.2017 00:57 17.5 C 20.6 C 75 % 1018.6 hPa 0.0 l/m 0.0 km/h (0 Bft) S 180 0.0 km/h (0 Bft)
27.05.2017 00:45 18.1 C 20.6 C 74 % 1018.6 hPa 0.0 l/m 0.0 km/h (0 Bft) S 180 0.0 km/h (0 Bft)
27.05.2017 00:33 18.5 C 20.6 C 70 % 1018.5 hPa 0.0 l/m 0.0 km/h (0 Bft) S 180 0.0 km/h (0 Bft)
27.05.2017 00:21 18.3 C 20.6 C 75 % 1018.4 hPa 0.0 l/m 0.0 km/h (0 Bft) S 180 0.0 km/h (0 Bft)
27.05.2017 00:09 18.7 C 20.6 C 73 % 1018.4 hPa 0.0 l/m 0.0 km/h (0 Bft) S 180 0.0 km/h (0 Bft)
26.05.2017 23:57 19.3 C 20.6 C 72 % 1018.4 hPa 0.0 l/m 7.2 km/h (2 Bft) N-NW 337 9.7 km/h (2 Bft)
26.05.2017 23:45 19.4 C 20.6 C 66 % 1018.3 hPa 0.0 l/m 0.0 km/h (0 Bft) S 180 0.0 km/h (0 Bft)
26.05.2017 23:33 20.0 C 20.6 C 67 % 1018.3 hPa 0.0 l/m 2.9 km/h (1 Bft) NW 315 6.4 km/h (2 Bft)
26.05.2017 23:21 20.4 C 20.6 C 63 % 1018.3 hPa 0.0 l/m 2.9 km/h (1 Bft) NW 315 8.0 km/h (2 Bft)
26.05.2017 23:09 20.2 C 21.1 C 61 % 1018.3 hPa 0.0 l/m 0.0 km/h (0 Bft) S 180 0.0 km/h (0 Bft)
26.05.2017 22:57 20.9 C 21.1 C 60 % 1018.3 hPa 0.0 l/m 0.0 km/h (0 Bft) S 180 0.0 km/h (0 Bft)
26.05.2017 22:45 20.7 C 21.1 C 67 % 1018.2 hPa 0.0 l/m 4.3 km/h (1 Bft) W-NW 292 8.0 km/h (2 Bft)
26.05.2017 22:33 20.6 C 21.1 C 66 % 1018.2 hPa 0.0 l/m 0.0 km/h (0 Bft) S 180 0.0 km/h (0 Bft)
26.05.2017 21:45 21.3 C 21.1 C 54 % 1015.6 hPa 0.0 l/m 0.0 km/h (0 Bft) N 5 0.0 km/h (0 Bft)
26.05.2017 20:45 23.4 C 20.6 C 49 % 1015.2 hPa 0.0 l/m 3.0 km/h (1 Bft) NO 40 10.1 km/h (2 Bft)
26.05.2017 19:45 24.3 C 20.6 C 46 % 1014.9 hPa 0.0 l/m 9.9 km/h (2 Bft) NO 37 15.9 km/h (3 Bft)
26.05.2017 18:45 24.9 C 20.6 C 43 % 1014.8 hPa 0.0 l/m 7.9 km/h (2 Bft) NO 52 17.4 km/h (3 Bft)
26.05.2017 17:45 24.9 C 20.6 C 42 % 1015.1 hPa 0.0 l/m 7.9 km/h (2 Bft) O-NO 59 14.5 km/h (3 Bft)
26.05.2017 16:45 24.7 C 20.0 C 41 % 1015.3 hPa 0.0 l/m 13.5 km/h (3 Bft) O-NO 60 21.7 km/h (4 Bft)
26.05.2017 15:45 24.4 C 20.0 C 42 % 1015.6 hPa 0.0 l/m 10.6 km/h (2 Bft) NO 47 20.3 km/h (4 Bft)
26.05.2017 14:45 23.8 C 20.0 C 51 % 1016.3 hPa 0.0 l/m 10.9 km/h (2 Bft) NO 49 17.4 km/h (3 Bft)
26.05.2017 14:00 23.2 C 20.0 C 56 % 1016.7 hPa 0.0 l/m 9.9 km/h (2 Bft) O-NO 63 20.3 km/h (4 Bft)
_ Min-Zeit 05:40 14:00 15:50 18:30 - 21:05 - - 21:05
Minimum _ 11.4 C 20.0 C 40 % 1014.7 hPa - 0.0 km/h (0 Bft) - - 0.0 km/h (0 Bft)
_ Max-Zeit 18:00 20:50 06:30 05:22 14:00 16:00 - - 14:30
Maximum _ 25.2 C 21.1 C 95 % 1019.3 hPa 0.0 l/m 15.3 km/h
NO (3 Bft)
- - 24.6 km/h
NO (4 Bft)
Durchschnitt _ 19.7 C 20.4 C 67 % 1017.3 hPa #0.0 l/m 4.0 km/h (1 Bft) NO - 8.0 km/h (2 Bft)